(°C)
10°
(°C)
ΔΒΔ
ΒΔ
ΒΔ
ΒΔ
ΒΔ
ΒΔ
ΒΔ
(χλμ / ω)
11-25
12-26
12-27
13-27
13-27
14-27
14-27
(χιλιοστά)
0
0
0
0
0
0
0
(%)
20
11
1
1
0
0
0

Ανύψωση ήλιου

/ -41.9°
sun-icon
UV 3
07:01
17:49
Φθίνων αμφίκυρτος (φάση σελήνης) (222°)
20:05
10:55

METAR για Barnstable (KHYA)

Χρόνος Συνθήκες Θερμοκρασία/
Σημείο δρόσου
Άνεμος Ορατότητα Καιρός Νέφη Πίεση Αλλαγή Ανεπεξέργαστο
VFR 9.4°C / 3.9°C 280º 4kt >10km - Broken Clouds 6000ft
Overcast 8000ft
1015 - KHYA 240656Z AUTO 28004KT 10SM BKN060 OVC080 09/04 A2999 RMK AO2 SLP156 T00940039
VFR 9.4°C / 3.3°C 300º 5kt >10km - Broken Clouds 6500ft
Overcast 9000ft
1015 - KHYA 240556Z AUTO 30005KT 10SM BKN065 OVC090 09/03 A2998 RMK AO2 SLP152 60000 T00940033 10117 20094 53014
VFR 9.4°C / 3.3°C 290º 4kt >10km - Broken Clouds 6000ft
Overcast 7500ft
1014 - KHYA 240456Z AUTO 29004KT 10SM BKN060 OVC075 09/03 A2996 RMK AO2 SLP145 T00940033 401560094
VFR 10°C / 3.3°C 280º 4kt >10km - Few Clouds 11000ft 1014 - KHYA 240356Z AUTO 28004KT 10SM FEW110 10/03 A2994 RMK AO2 SLP141 T01000033
VFR 10.6°C / 4.4°C 310º 7kt >10km - Clear 1013 - KHYA 240256Z AUTO 31007KT 10SM CLR 11/04 A2994 RMK AO2 SLP138 60000 T01060044 53005
VFR 11.1°C / 6.1°C 320º 4kt >10km - Clear 1013 - KHYA 240156Z 32004KT 10SM CLR 11/06 A2993 RMK AO2 SLP137 T01110061
VFR 11.1°C / 8.3°C 320º 4kt >10km 0.13mm precipitation Few Clouds 12000ft 1013 - KHYA 240056Z 32004KT 10SM FEW120 11/08 A2992 RMK AO2 RAB2357E08 SLP131 P0000 T01110083
VFR 11.7°C / 10°C 280º 3kt >10km - Few Clouds 4800ft
Scattered Clouds 7000ft
Overcast 10000ft
1013 - KHYA 232356Z 28003KT 10SM FEW048 SCT070 OVC100 12/10 A2992 RMK AO2 SLP132 T01170100 10156 20106 51016
VFR 10.6°C / 9.4°C variable 0kt >10km - Broken Clouds 11000ft 1012 - KHYA 232256Z 00000KT 10SM BKN110 11/09 A2991 RMK AO2 SLP129 T01060094
VFR 11.1°C / 8.9°C variable 0kt >10km - Clear 1012 - KHYA 232156Z 00000KT 10SM CLR 11/09 A2989 RMK AO2 SLP123 T01110089
VFR 14.4°C / 9.4°C 340º 4kt >10km - Clear 1011 - KHYA 232056Z 34004KT 10SM CLR 14/09 A2987 RMK AO2 SLP116 T01440094 55003
VFR 15°C / 10°C 20º 5kt >10km - Clear 1011 - KHYA 231956Z 02005KT 10SM CLR 15/10 A2987 RMK AO2 SLP116 T01500100
VFR 15°C / 10°C 360º 7kt >10km - Few Clouds 1700ft 1011 - KHYA 231856Z 36007KT 10SM FEW017 15/10 A2988 RMK AO2 SLP118 T01500100
VFR 15°C / 10.6°C 30º 6kt >10km - Few Clouds 1700ft
Scattered Clouds 2400ft
1012 - KHYA 231756Z 03006KT 10SM FEW017 SCT024 15/11 A2988 RMK AO2 SLP120 T01500106 10156 20133 58006
MVFR 15°C / 10.6°C 360º 7kt Gust 16kt >10km - Broken Clouds 1500ft 1012 - KHYA 231656Z 36007G16KT 10SM BKN015 15/11 A2989 RMK AO2 SLP123 T01500106
MVFR 15°C / 10.6°C 340º 12kt >10km - Broken Clouds 1300ft 1012 - KHYA 231556Z 34012KT 10SM BKN013 15/11 A2990 RMK AO2 SLP126 T01500106
VFR 15°C / 11.1°C 340º 9kt >10km - Scattered Clouds 1200ft
Broken Clouds 7500ft
1012 - KHYA 231456Z 34009KT 10SM SCT012 BKN075 15/11 A2990 RMK AO2 SLP126 T01500111 51003
VFR 13.9°C / 11.1°C 330º 10kt >10km - Scattered Clouds 6000ft
Overcast 8000ft
1012 - KHYA 231356Z 33010KT 10SM SCT060 OVC080 14/11 A2990 RMK AO2 SLP126 T01390111
VFR 13.9°C / 11.1°C 340º 6kt >10km - Broken Clouds 4300ft
Overcast 5000ft
1013 - KHYA 231256Z 34006KT 10SM BKN043 OVC050 14/11 A2991 RMK AO2 SLP130 T01390111
VFR 13.3°C / 10°C 340º 6kt >10km - Broken Clouds 4000ft
Overcast 8000ft
1012 - KHYA 231156Z 34006KT 10SM BKN040 OVC080 13/10 A2989 RMK AO2 SLP123 T01330100 10139 20128 53006
VFR 13.3°C / 9.4°C 350º 7kt >10km - Overcast 8000ft 1012 - KHYA 231056Z 35007KT 10SM OVC080 13/09 A2988 RMK AO2 SLP120 T01330094
VFR 13.3°C / 8.9°C 340º 7kt >10km - Broken Clouds 7000ft 1011 - KHYA 230956Z 34007KT 10SM BKN070 13/09 A2988 RMK AO2 SLP118 T01330089
VFR 13.3°C / 8.9°C 330º 4kt >10km - Scattered Clouds 7000ft
Broken Clouds 9000ft
1011 - KHYA 230856Z AUTO 33004KT 10SM SCT070 BKN090 13/09 A2987 RMK AO2 SLP117 T01330089 58000
VFR 13.9°C / 8.9°C 340º 5kt >10km - Scattered Clouds 4200ft
Overcast 9500ft
1011 - KHYA 230756Z AUTO 34005KT 10SM SCT042 OVC095 14/09 A2988 RMK AO2 SLP119 T01390089

VFR

9.4°C / 3.9°C

[Περισσότερο]
Άνεμος 280º 4kt
Ορατότητα >10km
Καιρός -
Νέφη Broken Clouds 6000ft
Overcast 8000ft
Πίεση 1015
Αλλαγή -
Ανεπεξέργαστο KHYA 240656Z AUTO 28004KT 10SM BKN060 OVC080 09/04 A2999 RMK AO2 SLP156 T00940039

VFR

9.4°C / 3.3°C

[Περισσότερο]
Άνεμος 300º 5kt
Ορατότητα >10km
Καιρός -
Νέφη Broken Clouds 6500ft
Overcast 9000ft
Πίεση 1015
Αλλαγή -
Ανεπεξέργαστο KHYA 240556Z AUTO 30005KT 10SM BKN065 OVC090 09/03 A2998 RMK AO2 SLP152 60000 T00940033 10117 20094 53014

VFR

9.4°C / 3.3°C

[Περισσότερο]
Άνεμος 290º 4kt
Ορατότητα >10km
Καιρός -
Νέφη Broken Clouds 6000ft
Overcast 7500ft
Πίεση 1014
Αλλαγή -
Ανεπεξέργαστο KHYA 240456Z AUTO 29004KT 10SM BKN060 OVC075 09/03 A2996 RMK AO2 SLP145 T00940033 401560094

VFR

10°C / 3.3°C

[Περισσότερο]
Άνεμος 280º 4kt
Ορατότητα >10km
Καιρός -
Νέφη Few Clouds 11000ft
Πίεση 1014
Αλλαγή -
Ανεπεξέργαστο KHYA 240356Z AUTO 28004KT 10SM FEW110 10/03 A2994 RMK AO2 SLP141 T01000033

VFR

10.6°C / 4.4°C

[Περισσότερο]
Άνεμος 310º 7kt
Ορατότητα >10km
Καιρός -
Νέφη Clear
Πίεση 1013
Αλλαγή -
Ανεπεξέργαστο KHYA 240256Z AUTO 31007KT 10SM CLR 11/04 A2994 RMK AO2 SLP138 60000 T01060044 53005

VFR

11.1°C / 6.1°C

[Περισσότερο]
Άνεμος 320º 4kt
Ορατότητα >10km
Καιρός -
Νέφη Clear
Πίεση 1013
Αλλαγή -
Ανεπεξέργαστο KHYA 240156Z 32004KT 10SM CLR 11/06 A2993 RMK AO2 SLP137 T01110061

VFR

11.1°C / 8.3°C

[Περισσότερο]
Άνεμος 320º 4kt
Ορατότητα >10km
Καιρός 0.13mm precipitation
Νέφη Few Clouds 12000ft
Πίεση 1013
Αλλαγή -
Ανεπεξέργαστο KHYA 240056Z 32004KT 10SM FEW120 11/08 A2992 RMK AO2 RAB2357E08 SLP131 P0000 T01110083

VFR

11.7°C / 10°C

[Περισσότερο]
Άνεμος 280º 3kt
Ορατότητα >10km
Καιρός -
Νέφη Few Clouds 4800ft
Scattered Clouds 7000ft
Overcast 10000ft
Πίεση 1013
Αλλαγή -
Ανεπεξέργαστο KHYA 232356Z 28003KT 10SM FEW048 SCT070 OVC100 12/10 A2992 RMK AO2 SLP132 T01170100 10156 20106 51016

VFR

10.6°C / 9.4°C

[Περισσότερο]
Άνεμος variable 0kt
Ορατότητα >10km
Καιρός -
Νέφη Broken Clouds 11000ft
Πίεση 1012
Αλλαγή -
Ανεπεξέργαστο KHYA 232256Z 00000KT 10SM BKN110 11/09 A2991 RMK AO2 SLP129 T01060094

VFR

11.1°C / 8.9°C

[Περισσότερο]
Άνεμος variable 0kt
Ορατότητα >10km
Καιρός -
Νέφη Clear
Πίεση 1012
Αλλαγή -
Ανεπεξέργαστο KHYA 232156Z 00000KT 10SM CLR 11/09 A2989 RMK AO2 SLP123 T01110089

VFR

14.4°C / 9.4°C

[Περισσότερο]
Άνεμος 340º 4kt
Ορατότητα >10km
Καιρός -
Νέφη Clear
Πίεση 1011
Αλλαγή -
Ανεπεξέργαστο KHYA 232056Z 34004KT 10SM CLR 14/09 A2987 RMK AO2 SLP116 T01440094 55003

VFR

15°C / 10°C

[Περισσότερο]
Άνεμος 20º 5kt
Ορατότητα >10km
Καιρός -
Νέφη Clear
Πίεση 1011
Αλλαγή -
Ανεπεξέργαστο KHYA 231956Z 02005KT 10SM CLR 15/10 A2987 RMK AO2 SLP116 T01500100

VFR

15°C / 10°C

[Περισσότερο]
Άνεμος 360º 7kt
Ορατότητα >10km
Καιρός -
Νέφη Few Clouds 1700ft
Πίεση 1011
Αλλαγή -
Ανεπεξέργαστο KHYA 231856Z 36007KT 10SM FEW017 15/10 A2988 RMK AO2 SLP118 T01500100

VFR

15°C / 10.6°C

[Περισσότερο]
Άνεμος 30º 6kt
Ορατότητα >10km
Καιρός -
Νέφη Few Clouds 1700ft
Scattered Clouds 2400ft
Πίεση 1012
Αλλαγή -
Ανεπεξέργαστο KHYA 231756Z 03006KT 10SM FEW017 SCT024 15/11 A2988 RMK AO2 SLP120 T01500106 10156 20133 58006

MVFR

15°C / 10.6°C

[Περισσότερο]
Άνεμος 360º 7kt Gust 16kt
Ορατότητα >10km
Καιρός -
Νέφη Broken Clouds 1500ft
Πίεση 1012
Αλλαγή -
Ανεπεξέργαστο KHYA 231656Z 36007G16KT 10SM BKN015 15/11 A2989 RMK AO2 SLP123 T01500106

MVFR

15°C / 10.6°C

[Περισσότερο]
Άνεμος 340º 12kt
Ορατότητα >10km
Καιρός -
Νέφη Broken Clouds 1300ft
Πίεση 1012
Αλλαγή -
Ανεπεξέργαστο KHYA 231556Z 34012KT 10SM BKN013 15/11 A2990 RMK AO2 SLP126 T01500106

VFR

15°C / 11.1°C

[Περισσότερο]
Άνεμος 340º 9kt
Ορατότητα >10km
Καιρός -
Νέφη Scattered Clouds 1200ft
Broken Clouds 7500ft
Πίεση 1012
Αλλαγή -
Ανεπεξέργαστο KHYA 231456Z 34009KT 10SM SCT012 BKN075 15/11 A2990 RMK AO2 SLP126 T01500111 51003

VFR

13.9°C / 11.1°C

[Περισσότερο]
Άνεμος 330º 10kt
Ορατότητα >10km
Καιρός -
Νέφη Scattered Clouds 6000ft
Overcast 8000ft
Πίεση 1012
Αλλαγή -
Ανεπεξέργαστο KHYA 231356Z 33010KT 10SM SCT060 OVC080 14/11 A2990 RMK AO2 SLP126 T01390111

VFR

13.9°C / 11.1°C

[Περισσότερο]
Άνεμος 340º 6kt
Ορατότητα >10km
Καιρός -
Νέφη Broken Clouds 4300ft
Overcast 5000ft
Πίεση 1013
Αλλαγή -
Ανεπεξέργαστο KHYA 231256Z 34006KT 10SM BKN043 OVC050 14/11 A2991 RMK AO2 SLP130 T01390111

VFR

13.3°C / 10°C

[Περισσότερο]
Άνεμος 340º 6kt
Ορατότητα >10km
Καιρός -
Νέφη Broken Clouds 4000ft
Overcast 8000ft
Πίεση 1012
Αλλαγή -
Ανεπεξέργαστο KHYA 231156Z 34006KT 10SM BKN040 OVC080 13/10 A2989 RMK AO2 SLP123 T01330100 10139 20128 53006

VFR

13.3°C / 9.4°C

[Περισσότερο]
Άνεμος 350º 7kt
Ορατότητα >10km
Καιρός -
Νέφη Overcast 8000ft
Πίεση 1012
Αλλαγή -
Ανεπεξέργαστο KHYA 231056Z 35007KT 10SM OVC080 13/09 A2988 RMK AO2 SLP120 T01330094

VFR

13.3°C / 8.9°C

[Περισσότερο]
Άνεμος 340º 7kt
Ορατότητα >10km
Καιρός -
Νέφη Broken Clouds 7000ft
Πίεση 1011
Αλλαγή -
Ανεπεξέργαστο KHYA 230956Z 34007KT 10SM BKN070 13/09 A2988 RMK AO2 SLP118 T01330089

VFR

13.3°C / 8.9°C

[Περισσότερο]
Άνεμος 330º 4kt
Ορατότητα >10km
Καιρός -
Νέφη Scattered Clouds 7000ft
Broken Clouds 9000ft
Πίεση 1011
Αλλαγή -
Ανεπεξέργαστο KHYA 230856Z AUTO 33004KT 10SM SCT070 BKN090 13/09 A2987 RMK AO2 SLP117 T01330089 58000

VFR

13.9°C / 8.9°C

[Περισσότερο]
Άνεμος 340º 5kt
Ορατότητα >10km
Καιρός -
Νέφη Scattered Clouds 4200ft
Overcast 9500ft
Πίεση 1011
Αλλαγή -
Ανεπεξέργαστο KHYA 230756Z AUTO 34005KT 10SM SCT042 OVC095 14/09 A2988 RMK AO2 SLP119 T01390089

TAF για Barnstable (KHYA)

From till


From till Wind 310º 8kt. Visibility 10km or more. Broken Clouds 6000ft.
From till Wind 320º 7kt. Visibility 10km or more. Sky Clear.
From till Wind 270º 8kt. Visibility 10km or more. Few Clouds 25000ft.
From till Wind 250º 5kt. Visibility 10km or more. Few Clouds 20000ft.
From till Wind 240º 3kt. Visibility 10km or more. Broken Clouds 12000ft.
From till Wind variable 0kt. Visibility 10km or more. in the Vicinity Showers . Broken Clouds 9000ft.

Ανεπεξέργαστο: KHYA 240527Z 2406/2506 31008KT P6SM BKN060 FM240900 32007KT P6SM SKC FM242000 27008KT P6SM FEW250 FM250000 25005KT P6SM FEW200 FM250400 24003KT P6SM BKN120 FM250500 00000KT P6SM VCSH BKN090

Τρέχουσες εικόνες δορυφόρου για Barnstable, Ηνωμένες Πολιτείες της Αμερικής

Η ένδειξη τοποθεσίας τοποθετείται στο Barnstable. [Περισσότερο]

Οι δορυφορικές εικόνες σε πραγματικό χρόνο συνδυάζουν ορατό φως κατά τη διάρκεια της ημέρας με υπέρυθρη ακτινοβολία κατά τη διάρκεια της νύχτας. Κατά τη διάρκεια της νύχτας, η εικόνα δεν είναι σκοτεινή μιας και η υπέρυθρη ακτινοβολία μπορεί να εντοπίσει τις διαφορές στη θερμοκρασία. Δυστυχώς, είναι δύσκολο να ξεχωρίσουν οι χαμηλές νεφώσεις και η ομίχλη από τις θερμοκρασίες εδάφους και έτσι μπορεί να είναι σχετικά αόρατα κατά τη διάρκεια της νύχτας. Οι εικόνες από τον δορυφόρο Meteosat για την Ευρώπη ενημερώνονται σε πραγματικό χρόνο κάθε 5 λεπτά. Οι εικόνες από τους δορυφόρους GOES-16/GOES-17 (Βόρεια & Λατινική Αμερική) και Himawari (Ασία) ενημερώνονται κάθε 10 λεπτά.

Ραντάρ και πρόγνωση υετού μικρής δειάρκειας για Barnstable

Ψιλοβρέχει
Φως
Μέτρια
Βαριά
Πολύ βαρύ
Χαλάζι

Ο δείκτης θέσης τοποθετείται στο Barnstable. Αυτή η κινούμενη εικόνα δείχνει την ραντάρ βροχόπτωσης για την τελευταία ώρα, καθώς και 1πρόγνωση h. Το ψιλόβροχο ή το ελαφρύ χιόνι μπορεί να είναι αόρατο για το ραντάρ. Η ένταση της βροχόπτωσης είναι χρωματικά κωδικοποιημένη και κυμαίνεται από γαλάζιο έως πορτοκαλί.